Port Angeles, WA

7:45 PM PST on February 11, 2016 (GMT -0800)
Top of Mt. Pleasant Rd. | | Change Station
CLOSE
Current Station
Personal Weather Station
Location: Port Angeles, WA
Elevation: 1237 ft
Nearby Weather Stations

Elev 1237 ft 48.04 °N, 123.36 °W | Updated 33 seconds ago

Rain
Rain
43.2 °F
Feels Like 43 °F
N
0.0
Wind Variable Wind from SSW
Gusts 0.0 mph

Today
High -- | Low -- °F
--% Chance of Precip.
Yesterday
High -- | Low -- °F
Precip. -- in
Pressure 30.06 in
Visibility 4.0 miles
Clouds Mostly Cloudy 700 ft
Overcast 10000 ft
Windchill 43 °F
Dew Point 43 °F
Humidity 98%
Rainfall 0.05 in
Snow Depth Not available.
7:26 AM 5:29 PM
Waxing Crescent, 17% visible
SPECI KCLM 120301Z AUTO 00000KT 4SM -RA BR BKN007 OVC100 08/07 A3006 RMK AO2 P0000 T00780067
Pressure 30.06 in
Visibility 4.0 miles
Clouds Mostly Cloudy 700 ft
Overcast 10000 ft
Windchill 43 °F
Dew Point 43 °F
Humidity 98%
Rainfall 0.05 in
Snow Depth Not available.
7:26 AM 5:29 PM
Waxing Crescent, 17% visible
SPECI KCLM 120301Z AUTO 00000KT 4SM -RA BR BKN007 OVC100 08/07 A3006 RMK AO2 P0000 T00780067

10-Day Weather Forecast

Almanac

Astronomy

Feb. 11, 2016 Rise Set
Actual Time
Civil Twilight
Nautical Twilight
Astronomical Twilight
Moon
Length of Visible Light
Length of Day
Tomorrow will be .
, % of the Moon is Illuminated

Today's Extremes

State Highs State Lows

Community

WunderPhotos

Upload Photos

1,892,254 photos uploaded!

WunderBlog® & News

Nearby

Air Quality

  Air Quality AQ Index Pollutant
Not available.

Snow Depth

Station Depth Elevation

Earthquake Activity

City Distance Mag. Time & Date
Minimum magnitude displayed is 2.5.

Coastal Water Temperatures

Place Temperature

Stations

Nearby Weather Stations

Station Location Temp. Windchill Dew Point Humidity Wind Precip. Elev Updated Type
                   

Watches & Warnings

There are currently no watches in effect.